BLZ weather

Chileka International Airport
Blantyre, Blantyre District, Malawi

Public forecast

Using degrees Celsius for public forecast. Weather courtesy of forecast.io.

Current aviation weather report (METAR) for Chileka International Airport

Report is more than 6 hours old.

Retrieved 2020/05/30 12:00 UTC (3 days ago):

FWCL 301200Z 08008KT 9999 SCT035 30/12 Q1020 NOSIG

Aviation forecast (TAF) for Chileka International Airport

Forecast is more than 12 hours old.

Retrieved 2020/06/01 15:20 UTC (13 hours ago):

TAF EKYT 011414Z 0115/0215 VRB06KT 9999 SCT200 TAF FWCL 011400Z 0118/0224 16010KT CAVOK BECMG 0204/0208 18010KT 9999 FEW020 BECMG 0214/0218 13008KT CAVOK